Aviation Digital Data Service (ADDS)

Output produced by METARs form (0653 UTC 07 April 2020)
found at http://www.aviationweather.gov/metar/data/
 
METAR text: RCTP 070630Z 05013KT 9999 FEW012 BKN020 BKN035 17/13 Q1015 NOSIG RMK A3000
Conditions at: RCTP (TAIPEI TAOYUAN , TW) observed 0630 UTC 07 April 2020
Temperature: 17.0°C (63°F)
Dewpoint: 13.0°C (55°F) [RH = 77%]
Pressure (altimeter): 29.97 inches Hg (1015.0 mb)
Winds: from the NE (50 degrees) at 15 MPH (13 knots; 6.7 m/s)
Visibility: 6 or more miles (10+ km)
Ceiling: 2000 feet AGL
Clouds: few clouds at 1200 feet AGL
broken clouds at 2000 feet AGL
broken clouds at 3500 feet AGL
Weather: no significant weather observed at this time

METAR text: RCTP 070600Z 04012KT 9999 FEW012 BKN020 BKN035 17/14 Q1016 NOSIG RMK A3001
Conditions at: RCTP (TAIPEI TAOYUAN , TW) observed 0600 UTC 07 April 2020
Temperature: 17.0°C (63°F)
Dewpoint: 14.0°C (57°F) [RH = 82%]
Pressure (altimeter): 30.00 inches Hg (1016.0 mb)
Winds: from the NE (40 degrees) at 14 MPH (12 knots; 6.2 m/s)
Visibility: 6 or more miles (10+ km)
Ceiling: 2000 feet AGL
Clouds: few clouds at 1200 feet AGL
broken clouds at 2000 feet AGL
broken clouds at 3500 feet AGL
Weather: no significant weather observed at this time

METAR text: RCTP 070530Z 04011KT 9999 FEW012 BKN016 BKN025 17/14 Q1016 NOSIG RMK A3001
Conditions at: RCTP (TAIPEI TAOYUAN , TW) observed 0530 UTC 07 April 2020
Temperature: 17.0°C (63°F)
Dewpoint: 14.0°C (57°F) [RH = 82%]
Pressure (altimeter): 30.00 inches Hg (1016.0 mb)
Winds: from the NE (40 degrees) at 13 MPH (11 knots; 5.7 m/s)
Visibility: 6 or more miles (10+ km)
Ceiling: 1600 feet AGL
Clouds: few clouds at 1200 feet AGL
broken clouds at 1600 feet AGL
broken clouds at 2500 feet AGL
Weather: no significant weather observed at this time

METAR text: RCTP 070500Z 04012KT 9999 FEW010 BKN015 BKN020 17/14 Q1016 NOSIG RMK A3002
Conditions at: RCTP (TAIPEI TAOYUAN , TW) observed 0500 UTC 07 April 2020
Temperature: 17.0°C (63°F)
Dewpoint: 14.0°C (57°F) [RH = 82%]
Pressure (altimeter): 30.00 inches Hg (1016.0 mb)
Winds: from the NE (40 degrees) at 14 MPH (12 knots; 6.2 m/s)
Visibility: 6 or more miles (10+ km)
Ceiling: 1500 feet AGL
Clouds: few clouds at 1000 feet AGL
broken clouds at 1500 feet AGL
broken clouds at 2000 feet AGL
Weather: no significant weather observed at this time

METAR text: RCTP 070430Z 04010KT 9999 FEW010 BKN015 BKN020 17/15 Q1016 NOSIG RMK A3003
Conditions at: RCTP (TAIPEI TAOYUAN , TW) observed 0430 UTC 07 April 2020
Temperature: 17.0°C (63°F)
Dewpoint: 15.0°C (59°F) [RH = 88%]
Pressure (altimeter): 30.00 inches Hg (1016.0 mb)
Winds: from the NE (40 degrees) at 12 MPH (10 knots; 5.1 m/s)
Visibility: 6 or more miles (10+ km)
Ceiling: 1500 feet AGL
Clouds: few clouds at 1000 feet AGL
broken clouds at 1500 feet AGL
broken clouds at 2000 feet AGL
Weather: no significant weather observed at this time

METAR text: RCTP 070400Z 04012KT 9999 FEW008 BKN015 BKN020 17/15 Q1017 NOSIG RMK A3004
Conditions at: RCTP (TAIPEI TAOYUAN , TW) observed 0400 UTC 07 April 2020
Temperature: 17.0°C (63°F)
Dewpoint: 15.0°C (59°F) [RH = 88%]
Pressure (altimeter): 30.03 inches Hg (1017.0 mb)
Winds: from the NE (40 degrees) at 14 MPH (12 knots; 6.2 m/s)
Visibility: 6 or more miles (10+ km)
Ceiling: 1500 feet AGL
Clouds: few clouds at 800 feet AGL
broken clouds at 1500 feet AGL
broken clouds at 2000 feet AGL
Weather: no significant weather observed at this time

METAR text: RCTP 070330Z 04011KT 9999 FEW008 BKN012 BKN020 17/15 Q1017 NOSIG RMK A3005
Conditions at: RCTP (TAIPEI TAOYUAN , TW) observed 0330 UTC 07 April 2020
Temperature: 17.0°C (63°F)
Dewpoint: 15.0°C (59°F) [RH = 88%]
Pressure (altimeter): 30.03 inches Hg (1017.0 mb)
Winds: from the NE (40 degrees) at 13 MPH (11 knots; 5.7 m/s)
Visibility: 6 or more miles (10+ km)
Ceiling: 1200 feet AGL
Clouds: few clouds at 800 feet AGL
broken clouds at 1200 feet AGL
broken clouds at 2000 feet AGL
Weather: no significant weather observed at this time

METAR text: RCTP 070300Z 06014KT 9999 FEW008 BKN012 BKN020 17/15 Q1017 NOSIG RMK A3005
Conditions at: RCTP (TAIPEI TAOYUAN , TW) observed 0300 UTC 07 April 2020
Temperature: 17.0°C (63°F)
Dewpoint: 15.0°C (59°F) [RH = 88%]
Pressure (altimeter): 30.03 inches Hg (1017.0 mb)
Winds: from the ENE (60 degrees) at 16 MPH (14 knots; 7.2 m/s)
Visibility: 6 or more miles (10+ km)
Ceiling: 1200 feet AGL
Clouds: few clouds at 800 feet AGL
broken clouds at 1200 feet AGL
broken clouds at 2000 feet AGL
Weather: no significant weather observed at this time

METAR text: RCTP 070230Z 06014KT 9999 FEW010 BKN015 BKN025 17/16 Q1017 NOSIG RMK A3005
Conditions at: RCTP (TAIPEI TAOYUAN , TW) observed 0230 UTC 07 April 2020
Temperature: 17.0°C (63°F)
Dewpoint: 16.0°C (61°F) [RH = 94%]
Pressure (altimeter): 30.03 inches Hg (1017.0 mb)
Winds: from the ENE (60 degrees) at 16 MPH (14 knots; 7.2 m/s)
Visibility: 6 or more miles (10+ km)
Ceiling: 1500 feet AGL
Clouds: few clouds at 1000 feet AGL
broken clouds at 1500 feet AGL
broken clouds at 2500 feet AGL
Weather: no significant weather observed at this time

METAR text: RCTP 070200Z 05013KT 9999 FEW006 BKN010 BKN020 16/15 Q1018 NOSIG RMK A3006
Conditions at: RCTP (TAIPEI TAOYUAN , TW) observed 0200 UTC 07 April 2020
Temperature: 16.0°C (61°F)
Dewpoint: 15.0°C (59°F) [RH = 94%]
Pressure (altimeter): 30.06 inches Hg (1018.0 mb)
Winds: from the NE (50 degrees) at 15 MPH (13 knots; 6.7 m/s)
Visibility: 6 or more miles (10+ km)
Ceiling: 1000 feet AGL
Clouds: few clouds at 600 feet AGL
broken clouds at 1000 feet AGL
broken clouds at 2000 feet AGL
Weather: no significant weather observed at this time

METAR text: RCTP 070130Z 04012KT 9999 SCT006 BKN010 BKN020 16/15 Q1018 NOSIG RMK A3006
Conditions at: RCTP (TAIPEI TAOYUAN , TW) observed 0130 UTC 07 April 2020
Temperature: 16.0°C (61°F)
Dewpoint: 15.0°C (59°F) [RH = 94%]
Pressure (altimeter): 30.06 inches Hg (1018.0 mb)
Winds: from the NE (40 degrees) at 14 MPH (12 knots; 6.2 m/s)
Visibility: 6 or more miles (10+ km)
Ceiling: 1000 feet AGL
Clouds: scattered clouds at 600 feet AGL
broken clouds at 1000 feet AGL
broken clouds at 2000 feet AGL
Weather: no significant weather observed at this time

METAR text: RCTP 070122Z 04012KT 9999 SCT006 BKN010 BKN020 16/15 Q1018 NOSIG RMK A3006
Conditions at: RCTP (TAIPEI TAOYUAN , TW) observed 0122 UTC 07 April 2020
Temperature: 16.0°C (61°F)
Dewpoint: 15.0°C (59°F) [RH = 94%]
Pressure (altimeter): 30.06 inches Hg (1018.0 mb)
Winds: from the NE (40 degrees) at 14 MPH (12 knots; 6.2 m/s)
Visibility: 6 or more miles (10+ km)
Ceiling: 1000 feet AGL
Clouds: scattered clouds at 600 feet AGL
broken clouds at 1000 feet AGL
broken clouds at 2000 feet AGL
Weather: no significant weather observed at this time

METAR text: RCTP 070100Z 05013KT 9999 -RA SCT006 BKN008 BKN020 15/15 Q1018 NOSIG RMK A3006 RA AMT 0.2MM
Conditions at: RCTP (TAIPEI TAOYUAN , TW) observed 0100 UTC 07 April 2020
Temperature: 15.0°C (59°F)
Dewpoint: 15.0°C (59°F) [RH = 100%]
Pressure (altimeter): 30.06 inches Hg (1018.0 mb)
Winds: from the NE (50 degrees) at 15 MPH (13 knots; 6.7 m/s)
Visibility: 6 or more miles (10+ km)
Ceiling: 800 feet AGL
Clouds: scattered clouds at 600 feet AGL
broken clouds at 800 feet AGL
broken clouds at 2000 feet AGL
Weather: -RA  (light rain)

METAR text: RCTP 070030Z 05012KT 6000 -RA BR SCT004 BKN006 BKN015 15/15 Q1017 NOSIG RMK A3005
Conditions at: RCTP (TAIPEI TAOYUAN , TW) observed 0030 UTC 07 April 2020
Temperature: 15.0°C (59°F)
Dewpoint: 15.0°C (59°F) [RH = 100%]
Pressure (altimeter): 30.03 inches Hg (1017.0 mb)
Winds: from the NE (50 degrees) at 14 MPH (12 knots; 6.2 m/s)
Visibility: 4 miles ( 6 km)
Ceiling: 600 feet AGL
Clouds: scattered clouds at 400 feet AGL
broken clouds at 600 feet AGL
broken clouds at 1500 feet AGL
Weather: -RA BR  (light rain, mist)

METAR text: RCTP 070000Z 04012KT 3500 -RA BR SCT003 BKN005 BKN015 15/15 Q1017 TEMPO 3000 BR RMK A3005 RA AMT 0.4MM
Conditions at: RCTP (TAIPEI TAOYUAN , TW) observed 0000 UTC 07 April 2020
Temperature: 15.0°C (59°F)
Dewpoint: 15.0°C (59°F) [RH = 100%]
Pressure (altimeter): 30.03 inches Hg (1017.0 mb)
Winds: from the NE (40 degrees) at 14 MPH (12 knots; 6.2 m/s)
Visibility: 2.17 miles (3.49 km)
Ceiling: 500 feet AGL
Clouds: scattered clouds at 300 feet AGL
broken clouds at 500 feet AGL
broken clouds at 1500 feet AGL
Weather: -RA BR  (light rain, mist)

METAR text: RCTP 062330Z 04011KT 3500 -RA BR SCT003 BKN005 BKN015 15/15 Q1016 TEMPO 3000 BR RMK A3003
Conditions at: RCTP (TAIPEI TAOYUAN , TW) observed 2330 UTC 06 April 2020
Temperature: 15.0°C (59°F)
Dewpoint: 15.0°C (59°F) [RH = 100%]
Pressure (altimeter): 30.00 inches Hg (1016.0 mb)
Winds: from the NE (40 degrees) at 13 MPH (11 knots; 5.7 m/s)
Visibility: 2.17 miles (3.49 km)
Ceiling: 500 feet AGL
Clouds: scattered clouds at 300 feet AGL
broken clouds at 500 feet AGL
broken clouds at 1500 feet AGL
Weather: -RA BR  (light rain, mist)

METAR text: RCTP 062313Z 03012KT 3500 -RA BR SCT003 BKN005 BKN015 16/15 Q1016 TEMPO 3000 BR RMK A3003
Conditions at: RCTP (TAIPEI TAOYUAN , TW) observed 2313 UTC 06 April 2020
Temperature: 16.0°C (61°F)
Dewpoint: 15.0°C (59°F) [RH = 94%]
Pressure (altimeter): 30.00 inches Hg (1016.0 mb)
Winds: from the NNE (30 degrees) at 14 MPH (12 knots; 6.2 m/s)
Visibility: 2.17 miles (3.49 km)
Ceiling: 500 feet AGL
Clouds: scattered clouds at 300 feet AGL
broken clouds at 500 feet AGL
broken clouds at 1500 feet AGL
Weather: -RA BR  (light rain, mist)

METAR text: RCTP 062300Z 04008KT 4500 -RA BR SCT005 BKN008 BKN020 16/15 Q1016 NOSIG RMK A3002 RA AMT 0.2MM
Conditions at: RCTP (TAIPEI TAOYUAN , TW) observed 2300 UTC 06 April 2020
Temperature: 16.0°C (61°F)
Dewpoint: 15.0°C (59°F) [RH = 94%]
Pressure (altimeter): 30.00 inches Hg (1016.0 mb)
Winds: from the NE (40 degrees) at 9 MPH (8 knots; 4.1 m/s)
Visibility: 2.80 miles (4.51 km)
Ceiling: 800 feet AGL
Clouds: scattered clouds at 500 feet AGL
broken clouds at 800 feet AGL
broken clouds at 2000 feet AGL
Weather: -RA BR  (light rain, mist)

METAR text: RCTP 062248Z 05008KT 4500 -RA BR SCT006 BKN010 BKN022 16/15 Q1016 NOSIG RMK A3002
Conditions at: RCTP (TAIPEI TAOYUAN , TW) observed 2248 UTC 06 April 2020
Temperature: 16.0°C (61°F)
Dewpoint: 15.0°C (59°F) [RH = 94%]
Pressure (altimeter): 30.00 inches Hg (1016.0 mb)
Winds: from the NE (50 degrees) at 9 MPH (8 knots; 4.1 m/s)
Visibility: 2.80 miles (4.51 km)
Ceiling: 1000 feet AGL
Clouds: scattered clouds at 600 feet AGL
broken clouds at 1000 feet AGL
broken clouds at 2200 feet AGL
Weather: -RA BR  (light rain, mist)

METAR text: RCTP 062230Z 05012KT 8000 -RA SCT008 BKN012 BKN020 16/15 Q1016 NOSIG RMK A3001
Conditions at: RCTP (TAIPEI TAOYUAN , TW) observed 2230 UTC 06 April 2020
Temperature: 16.0°C (61°F)
Dewpoint: 15.0°C (59°F) [RH = 94%]
Pressure (altimeter): 30.00 inches Hg (1016.0 mb)
Winds: from the NE (50 degrees) at 14 MPH (12 knots; 6.2 m/s)
Visibility: 5 miles ( 8 km)
Ceiling: 1200 feet AGL
Clouds: scattered clouds at 800 feet AGL
broken clouds at 1200 feet AGL
broken clouds at 2000 feet AGL
Weather: -RA  (light rain)

METAR text: RCTP 062200Z 04013KT 9999 -RA SCT010 BKN015 BKN025 16/14 Q1015 NOSIG RMK A2998 RA AMT 0.2MM
Conditions at: RCTP (TAIPEI TAOYUAN , TW) observed 2200 UTC 06 April 2020
Temperature: 16.0°C (61°F)
Dewpoint: 14.0°C (57°F) [RH = 88%]
Pressure (altimeter): 29.97 inches Hg (1015.0 mb)
Winds: from the NE (40 degrees) at 15 MPH (13 knots; 6.7 m/s)
Visibility: 6 or more miles (10+ km)
Ceiling: 1500 feet AGL
Clouds: scattered clouds at 1000 feet AGL
broken clouds at 1500 feet AGL
broken clouds at 2500 feet AGL
Weather: -RA  (light rain)

METAR text: RCTP 062146Z 04012KT 9999 -RA SCT010 BKN015 BKN025 16/14 Q1015 NOSIG RMK A2999
Conditions at: RCTP (TAIPEI TAOYUAN , TW) observed 2146 UTC 06 April 2020
Temperature: 16.0°C (61°F)
Dewpoint: 14.0°C (57°F) [RH = 88%]
Pressure (altimeter): 29.97 inches Hg (1015.0 mb)
Winds: from the NE (40 degrees) at 14 MPH (12 knots; 6.2 m/s)
Visibility: 6 or more miles (10+ km)
Ceiling: 1500 feet AGL
Clouds: scattered clouds at 1000 feet AGL
broken clouds at 1500 feet AGL
broken clouds at 2500 feet AGL
Weather: -RA  (light rain)

METAR text: RCTP 062130Z 04011KT 9999 FEW010 BKN014 BKN030 16/14 Q1015 NOSIG RMK A2998
Conditions at: RCTP (TAIPEI TAOYUAN , TW) observed 2130 UTC 06 April 2020
Temperature: 16.0°C (61°F)
Dewpoint: 14.0°C (57°F) [RH = 88%]
Pressure (altimeter): 29.97 inches Hg (1015.0 mb)
Winds: from the NE (40 degrees) at 13 MPH (11 knots; 5.7 m/s)
Visibility: 6 or more miles (10+ km)
Ceiling: 1400 feet AGL
Clouds: few clouds at 1000 feet AGL
broken clouds at 1400 feet AGL
broken clouds at 3000 feet AGL
Weather: no significant weather observed at this time

METAR text: RCTP 062100Z 04013KT 9999 FEW010 BKN014 BKN030 16/14 Q1014 NOSIG RMK A2997
Conditions at: RCTP (TAIPEI TAOYUAN , TW) observed 2100 UTC 06 April 2020
Temperature: 16.0°C (61°F)
Dewpoint: 14.0°C (57°F) [RH = 88%]
Pressure (altimeter): 29.94 inches Hg (1014.0 mb)
Winds: from the NE (40 degrees) at 15 MPH (13 knots; 6.7 m/s)
Visibility: 6 or more miles (10+ km)
Ceiling: 1400 feet AGL
Clouds: few clouds at 1000 feet AGL
broken clouds at 1400 feet AGL
broken clouds at 3000 feet AGL
Weather: no significant weather observed at this time

METAR text: RCTP 062030Z 04012KT 9999 FEW008 BKN012 BKN030 16/15 Q1015 NOSIG RMK A2999
Conditions at: RCTP (TAIPEI TAOYUAN , TW) observed 2030 UTC 06 April 2020
Temperature: 16.0°C (61°F)
Dewpoint: 15.0°C (59°F) [RH = 94%]
Pressure (altimeter): 29.97 inches Hg (1015.0 mb)
Winds: from the NE (40 degrees) at 14 MPH (12 knots; 6.2 m/s)
Visibility: 6 or more miles (10+ km)
Ceiling: 1200 feet AGL
Clouds: few clouds at 800 feet AGL
broken clouds at 1200 feet AGL
broken clouds at 3000 feet AGL
Weather: no significant weather observed at this time

METAR text: RCTP 062000Z 03015KT 9999 -RA SCT008 BKN012 BKN030 16/15 Q1014 NOSIG RMK A2996 RA AMT 0.8MM
Conditions at: RCTP (TAIPEI TAOYUAN , TW) observed 2000 UTC 06 April 2020
Temperature: 16.0°C (61°F)
Dewpoint: 15.0°C (59°F) [RH = 94%]
Pressure (altimeter): 29.94 inches Hg (1014.0 mb)
Winds: from the NNE (30 degrees) at 17 MPH (15 knots; 7.7 m/s)
Visibility: 6 or more miles (10+ km)
Ceiling: 1200 feet AGL
Clouds: scattered clouds at 800 feet AGL
broken clouds at 1200 feet AGL
broken clouds at 3000 feet AGL
Weather: -RA  (light rain)

METAR text: RCTP 061930Z 03013KT 9999 -RA SCT008 BKN012 BKN030 16/15 Q1015 NOSIG RMK A2999
Conditions at: RCTP (TAIPEI TAOYUAN , TW) observed 1930 UTC 06 April 2020
Temperature: 16.0°C (61°F)
Dewpoint: 15.0°C (59°F) [RH = 94%]
Pressure (altimeter): 29.97 inches Hg (1015.0 mb)
Winds: from the NNE (30 degrees) at 15 MPH (13 knots; 6.7 m/s)
Visibility: 6 or more miles (10+ km)
Ceiling: 1200 feet AGL
Clouds: scattered clouds at 800 feet AGL
broken clouds at 1200 feet AGL
broken clouds at 3000 feet AGL
Weather: -RA  (light rain)

METAR text: RCTP 061900Z 03012KT 9999 -RA SCT008 BKN012 BKN030 16/15 Q1015 NOSIG RMK A2999 RA AMT 0.2MM
Conditions at: RCTP (TAIPEI TAOYUAN , TW) observed 1900 UTC 06 April 2020
Temperature: 16.0°C (61°F)
Dewpoint: 15.0°C (59°F) [RH = 94%]
Pressure (altimeter): 29.97 inches Hg (1015.0 mb)
Winds: from the NNE (30 degrees) at 14 MPH (12 knots; 6.2 m/s)
Visibility: 6 or more miles (10+ km)
Ceiling: 1200 feet AGL
Clouds: scattered clouds at 800 feet AGL
broken clouds at 1200 feet AGL
broken clouds at 3000 feet AGL
Weather: -RA  (light rain)

METAR text: RCTP 061830Z 04012KT 9999 -RA SCT008 BKN012 BKN030 16/15 Q1015 NOSIG RMK A2998
Conditions at: RCTP (TAIPEI TAOYUAN , TW) observed 1830 UTC 06 April 2020
Temperature: 16.0°C (61°F)
Dewpoint: 15.0°C (59°F) [RH = 94%]
Pressure (altimeter): 29.97 inches Hg (1015.0 mb)
Winds: from the NE (40 degrees) at 14 MPH (12 knots; 6.2 m/s)
Visibility: 6 or more miles (10+ km)
Ceiling: 1200 feet AGL
Clouds: scattered clouds at 800 feet AGL
broken clouds at 1200 feet AGL
broken clouds at 3000 feet AGL
Weather: -RA  (light rain)

METAR text: RCTP 061800Z 03011KT 9999 -RA SCT008 BKN012 BKN030 16/16 Q1015 NOSIG RMK A3000 RA AMT 0.2MM
Conditions at: RCTP (TAIPEI TAOYUAN , TW) observed 1800 UTC 06 April 2020
Temperature: 16.0°C (61°F)
Dewpoint: 16.0°C (61°F) [RH = 100%]
Pressure (altimeter): 29.97 inches Hg (1015.0 mb)
Winds: from the NNE (30 degrees) at 13 MPH (11 knots; 5.7 m/s)
Visibility: 6 or more miles (10+ km)
Ceiling: 1200 feet AGL
Clouds: scattered clouds at 800 feet AGL
broken clouds at 1200 feet AGL
broken clouds at 3000 feet AGL
Weather: -RA  (light rain)

METAR text: RCTP 061730Z 04013KT 9999 -RA SCT008 BKN012 BKN030 17/16 Q1015 NOSIG RMK A3000
Conditions at: RCTP (TAIPEI TAOYUAN , TW) observed 1730 UTC 06 April 2020
Temperature: 17.0°C (63°F)
Dewpoint: 16.0°C (61°F) [RH = 94%]
Pressure (altimeter): 29.97 inches Hg (1015.0 mb)
Winds: from the NE (40 degrees) at 15 MPH (13 knots; 6.7 m/s)
Visibility: 6 or more miles (10+ km)
Ceiling: 1200 feet AGL
Clouds: scattered clouds at 800 feet AGL
broken clouds at 1200 feet AGL
broken clouds at 3000 feet AGL
Weather: -RA  (light rain)

METAR text: RCTP 061700Z 05014KT 9999 -RA SCT006 BKN010 BKN030 16/16 Q1015 NOSIG RMK A3000 RA AMT 0.2MM
Conditions at: RCTP (TAIPEI TAOYUAN , TW) observed 1700 UTC 06 April 2020
Temperature: 16.0°C (61°F)
Dewpoint: 16.0°C (61°F) [RH = 100%]
Pressure (altimeter): 29.97 inches Hg (1015.0 mb)
Winds: from the NE (50 degrees) at 16 MPH (14 knots; 7.2 m/s)
Visibility: 6 or more miles (10+ km)
Ceiling: 1000 feet AGL
Clouds: scattered clouds at 600 feet AGL
broken clouds at 1000 feet AGL
broken clouds at 3000 feet AGL
Weather: -RA  (light rain)

METAR text: RCTP 061655Z 05015KT 9999 -RA SCT006 BKN010 BKN030 16/16 Q1015 NOSIG RMK A3000
Conditions at: RCTP (TAIPEI TAOYUAN , TW) observed 1655 UTC 06 April 2020
Temperature: 16.0°C (61°F)
Dewpoint: 16.0°C (61°F) [RH = 100%]
Pressure (altimeter): 29.97 inches Hg (1015.0 mb)
Winds: from the NE (50 degrees) at 17 MPH (15 knots; 7.7 m/s)
Visibility: 6 or more miles (10+ km)
Ceiling: 1000 feet AGL
Clouds: scattered clouds at 600 feet AGL
broken clouds at 1000 feet AGL
broken clouds at 3000 feet AGL
Weather: -RA  (light rain)

METAR text: RCTP 061630Z 04014KT 9999 FEW006 BKN010 BKN030 17/16 Q1016 NOSIG RMK A3002
Conditions at: RCTP (TAIPEI TAOYUAN , TW) observed 1630 UTC 06 April 2020
Temperature: 17.0°C (63°F)
Dewpoint: 16.0°C (61°F) [RH = 94%]
Pressure (altimeter): 30.00 inches Hg (1016.0 mb)
Winds: from the NE (40 degrees) at 16 MPH (14 knots; 7.2 m/s)
Visibility: 6 or more miles (10+ km)
Ceiling: 1000 feet AGL
Clouds: few clouds at 600 feet AGL
broken clouds at 1000 feet AGL
broken clouds at 3000 feet AGL
Weather: no significant weather observed at this time

METAR text: RCTP 061600Z 04015KT 9999 -RA FEW006 BKN008 BKN020 16/16 Q1015 NOSIG RMK A3000 RA AMT 1.8MM
Conditions at: RCTP (TAIPEI TAOYUAN , TW) observed 1600 UTC 06 April 2020
Temperature: 16.0°C (61°F)
Dewpoint: 16.0°C (61°F) [RH = 100%]
Pressure (altimeter): 29.97 inches Hg (1015.0 mb)
Winds: from the NE (40 degrees) at 17 MPH (15 knots; 7.7 m/s)
Visibility: 6 or more miles (10+ km)
Ceiling: 800 feet AGL
Clouds: few clouds at 600 feet AGL
broken clouds at 800 feet AGL
broken clouds at 2000 feet AGL
Weather: -RA  (light rain)

METAR text: RCTP 061530Z 03015KT 6000 -RA SCT006 BKN008 BKN020 17/16 Q1016 TEMPO 5000 RA RMK A3003
Conditions at: RCTP (TAIPEI TAOYUAN , TW) observed 1530 UTC 06 April 2020
Temperature: 17.0°C (63°F)
Dewpoint: 16.0°C (61°F) [RH = 94%]
Pressure (altimeter): 30.00 inches Hg (1016.0 mb)
Winds: from the NNE (30 degrees) at 17 MPH (15 knots; 7.7 m/s)
Visibility: 4 miles ( 6 km)
Ceiling: 800 feet AGL
Clouds: scattered clouds at 600 feet AGL
broken clouds at 800 feet AGL
broken clouds at 2000 feet AGL
Weather: -RA  (light rain)

METAR text: RCTP 061500Z 03009KT 8000 -RA FEW010 BKN012 BKN060 17/17 Q1017 TEMPO 5000 RA RMK A3004 RA AMT 0.8MM
Conditions at: RCTP (TAIPEI TAOYUAN , TW) observed 1500 UTC 06 April 2020
Temperature: 17.0°C (63°F)
Dewpoint: 17.0°C (63°F) [RH = 100%]
Pressure (altimeter): 30.03 inches Hg (1017.0 mb)
Winds: from the NNE (30 degrees) at 10 MPH (9 knots; 4.6 m/s)
Visibility: 5 miles ( 8 km)
Ceiling: 1200 feet AGL
Clouds: few clouds at 1000 feet AGL
broken clouds at 1200 feet AGL
broken clouds at 6000 feet AGL
Weather: -RA  (light rain)

METAR text: RCTP 061430Z 06013KT 9999 -RA FEW010 BKN012 BKN060 17/17 Q1016 TEMPO 5000 RA RMK A3001
Conditions at: RCTP (TAIPEI TAOYUAN , TW) observed 1430 UTC 06 April 2020
Temperature: 17.0°C (63°F)
Dewpoint: 17.0°C (63°F) [RH = 100%]
Pressure (altimeter): 30.00 inches Hg (1016.0 mb)
Winds: from the ENE (60 degrees) at 15 MPH (13 knots; 6.7 m/s)
Visibility: 6 or more miles (10+ km)
Ceiling: 1200 feet AGL
Clouds: few clouds at 1000 feet AGL
broken clouds at 1200 feet AGL
broken clouds at 6000 feet AGL
Weather: -RA  (light rain)

METAR text: RCTP 061400Z 06012KT 9000 -RA SCT010 BKN014 BKN060 17/16 Q1016 TEMPO 5000 RA RMK A3002 RA AMT 0.6MM
Conditions at: RCTP (TAIPEI TAOYUAN , TW) observed 1400 UTC 06 April 2020
Temperature: 17.0°C (63°F)
Dewpoint: 16.0°C (61°F) [RH = 94%]
Pressure (altimeter): 30.00 inches Hg (1016.0 mb)
Winds: from the ENE (60 degrees) at 14 MPH (12 knots; 6.2 m/s)
Visibility: 6 miles ( 9 km)
Ceiling: 1400 feet AGL
Clouds: scattered clouds at 1000 feet AGL
broken clouds at 1400 feet AGL
broken clouds at 6000 feet AGL
Weather: -RA  (light rain)

METAR text: RCTP 061330Z 06011KT 9000 -RA SCT010 BKN014 BKN090 17/17 Q1017 TEMPO 5000 RA RMK A3004
Conditions at: RCTP (TAIPEI TAOYUAN , TW) observed 1330 UTC 06 April 2020
Temperature: 17.0°C (63°F)
Dewpoint: 17.0°C (63°F) [RH = 100%]
Pressure (altimeter): 30.03 inches Hg (1017.0 mb)
Winds: from the ENE (60 degrees) at 13 MPH (11 knots; 5.7 m/s)
Visibility: 6 miles ( 9 km)
Ceiling: 1400 feet AGL
Clouds: scattered clouds at 1000 feet AGL
broken clouds at 1400 feet AGL
broken clouds at 9000 feet AGL
Weather: -RA  (light rain)

METAR text: RCTP 061300Z 07012KT 9000 -RA SCT010 BKN015 BKN090 17/17 Q1017 TEMPO 5000 RA RMK A3004 RA AMT 0.8MM
Conditions at: RCTP (TAIPEI TAOYUAN , TW) observed 1300 UTC 06 April 2020
Temperature: 17.0°C (63°F)
Dewpoint: 17.0°C (63°F) [RH = 100%]
Pressure (altimeter): 30.03 inches Hg (1017.0 mb)
Winds: from the ENE (70 degrees) at 14 MPH (12 knots; 6.2 m/s)
Visibility: 6 miles ( 9 km)
Ceiling: 1500 feet AGL
Clouds: scattered clouds at 1000 feet AGL
broken clouds at 1500 feet AGL
broken clouds at 9000 feet AGL
Weather: -RA  (light rain)

METAR text: RCTP 061230Z 06010KT 9999 -RA FEW012 BKN015 BKN090 17/17 Q1017 TEMPO 5000 RA RMK A3005
Conditions at: RCTP (TAIPEI TAOYUAN , TW) observed 1230 UTC 06 April 2020
Temperature: 17.0°C (63°F)
Dewpoint: 17.0°C (63°F) [RH = 100%]
Pressure (altimeter): 30.03 inches Hg (1017.0 mb)
Winds: from the ENE (60 degrees) at 12 MPH (10 knots; 5.1 m/s)
Visibility: 6 or more miles (10+ km)
Ceiling: 1500 feet AGL
Clouds: few clouds at 1200 feet AGL
broken clouds at 1500 feet AGL
broken clouds at 9000 feet AGL
Weather: -RA  (light rain)

METAR text: RCTP 061200Z 05010KT 9999 -RA FEW012 BKN015 BKN100 17/17 Q1016 NOSIG RMK A3003
Conditions at: RCTP (TAIPEI TAOYUAN , TW) observed 1200 UTC 06 April 2020
Temperature: 17.0°C (63°F)
Dewpoint: 17.0°C (63°F) [RH = 100%]
Pressure (altimeter): 30.00 inches Hg (1016.0 mb)
Winds: from the NE (50 degrees) at 12 MPH (10 knots; 5.1 m/s)
Visibility: 6 or more miles (10+ km)
Ceiling: 1500 feet AGL
Clouds: few clouds at 1200 feet AGL
broken clouds at 1500 feet AGL
broken clouds at 10000 feet AGL
Weather: -RA  (light rain)

METAR text: RCTP 061145Z 05006KT 9999 -RA FEW012 BKN015 BKN100 17/16 Q1016 NOSIG RMK A3003
Conditions at: RCTP (TAIPEI TAOYUAN , TW) observed 1145 UTC 06 April 2020
Temperature: 17.0°C (63°F)
Dewpoint: 16.0°C (61°F) [RH = 94%]
Pressure (altimeter): 30.00 inches Hg (1016.0 mb)
Winds: from the NE (50 degrees) at 7 MPH (6 knots; 3.1 m/s)
Visibility: 6 or more miles (10+ km)
Ceiling: 1500 feet AGL
Clouds: few clouds at 1200 feet AGL
broken clouds at 1500 feet AGL
broken clouds at 10000 feet AGL
Weather: -RA  (light rain)

METAR text: RCTP 061130Z 05007KT 9999 -RA FEW012 BKN018 BKN100 17/16 Q1016 NOSIG RMK A3003
Conditions at: RCTP (TAIPEI TAOYUAN , TW) observed 1130 UTC 06 April 2020
Temperature: 17.0°C (63°F)
Dewpoint: 16.0°C (61°F) [RH = 94%]
Pressure (altimeter): 30.00 inches Hg (1016.0 mb)
Winds: from the NE (50 degrees) at 8 MPH (7 knots; 3.6 m/s)
Visibility: 6 or more miles (10+ km)
Ceiling: 1800 feet AGL
Clouds: few clouds at 1200 feet AGL
broken clouds at 1800 feet AGL
broken clouds at 10000 feet AGL
Weather: -RA  (light rain)

METAR text: RCTP 061100Z 06007KT 9999 -RA FEW012 SCT020 BKN100 17/16 Q1016 NOSIG RMK A3001 RA AMT 0.2MM
Conditions at: RCTP (TAIPEI TAOYUAN , TW) observed 1100 UTC 06 April 2020
Temperature: 17.0°C (63°F)
Dewpoint: 16.0°C (61°F) [RH = 94%]
Pressure (altimeter): 30.00 inches Hg (1016.0 mb)
Winds: from the ENE (60 degrees) at 8 MPH (7 knots; 3.6 m/s)
Visibility: 6 or more miles (10+ km)
Ceiling: 10000 feet AGL
Clouds: few clouds at 1200 feet AGL
scattered clouds at 2000 feet AGL
broken clouds at 10000 feet AGL
Weather: -RA  (light rain)

METAR text: RCTP 061030Z 07010KT 9999 -RA FEW012 BKN018 BKN090 17/16 Q1016 NOSIG RMK A3001
Conditions at: RCTP (TAIPEI TAOYUAN , TW) observed 1030 UTC 06 April 2020
Temperature: 17.0°C (63°F)
Dewpoint: 16.0°C (61°F) [RH = 94%]
Pressure (altimeter): 30.00 inches Hg (1016.0 mb)
Winds: from the ENE (70 degrees) at 12 MPH (10 knots; 5.1 m/s)
Visibility: 6 or more miles (10+ km)
Ceiling: 1800 feet AGL
Clouds: few clouds at 1200 feet AGL
broken clouds at 1800 feet AGL
broken clouds at 9000 feet AGL
Weather: -RA  (light rain)

METAR text: RCTP 061000Z 07013KT 9999 -RA FEW012 BKN018 BKN030 17/16 Q1016 NOSIG RMK A3001 RA AMT 0.2MM
Conditions at: RCTP (TAIPEI TAOYUAN , TW) observed 1000 UTC 06 April 2020
Temperature: 17.0°C (63°F)
Dewpoint: 16.0°C (61°F) [RH = 94%]
Pressure (altimeter): 30.00 inches Hg (1016.0 mb)
Winds: from the ENE (70 degrees) at 15 MPH (13 knots; 6.7 m/s)
Visibility: 6 or more miles (10+ km)
Ceiling: 1800 feet AGL
Clouds: few clouds at 1200 feet AGL
broken clouds at 1800 feet AGL
broken clouds at 3000 feet AGL
Weather: -RA  (light rain)

METAR text: RCTP 060930Z 06013KT 9999 -RA FEW012 BKN018 BKN030 17/16 Q1015 NOSIG RMK A3000
Conditions at: RCTP (TAIPEI TAOYUAN , TW) observed 0930 UTC 06 April 2020
Temperature: 17.0°C (63°F)
Dewpoint: 16.0°C (61°F) [RH = 94%]
Pressure (altimeter): 29.97 inches Hg (1015.0 mb)
Winds: from the ENE (60 degrees) at 15 MPH (13 knots; 6.7 m/s)
Visibility: 6 or more miles (10+ km)
Ceiling: 1800 feet AGL
Clouds: few clouds at 1200 feet AGL
broken clouds at 1800 feet AGL
broken clouds at 3000 feet AGL
Weather: -RA  (light rain)

METAR text: RCTP 060900Z 05010KT 9999 -DZ FEW012 BKN018 BKN040 18/16 Q1015 NOSIG RMK A3000
Conditions at: RCTP (TAIPEI TAOYUAN , TW) observed 0900 UTC 06 April 2020
Temperature: 18.0°C (64°F)
Dewpoint: 16.0°C (61°F) [RH = 88%]
Pressure (altimeter): 29.97 inches Hg (1015.0 mb)
Winds: from the NE (50 degrees) at 12 MPH (10 knots; 5.1 m/s)
Visibility: 6 or more miles (10+ km)
Ceiling: 1800 feet AGL
Clouds: few clouds at 1200 feet AGL
broken clouds at 1800 feet AGL
broken clouds at 4000 feet AGL
Weather: -DZ  (light drizzle)

METAR text: RCTP 060830Z 05011KT 9999 -RA FEW012 BKN020 BKN050 18/16 Q1015 NOSIG RMK A2999
Conditions at: RCTP (TAIPEI TAOYUAN , TW) observed 0830 UTC 06 April 2020
Temperature: 18.0°C (64°F)
Dewpoint: 16.0°C (61°F) [RH = 88%]
Pressure (altimeter): 29.97 inches Hg (1015.0 mb)
Winds: from the NE (50 degrees) at 13 MPH (11 knots; 5.7 m/s)
Visibility: 6 or more miles (10+ km)
Ceiling: 2000 feet AGL
Clouds: few clouds at 1200 feet AGL
broken clouds at 2000 feet AGL
broken clouds at 5000 feet AGL
Weather: -RA  (light rain)

METAR text: RCTP 060800Z 06010KT 9999 -RA FEW012 BKN022 BKN050 18/16 Q1015 NOSIG RMK A2999 RA AMT 0.2MM
Conditions at: RCTP (TAIPEI TAOYUAN , TW) observed 0800 UTC 06 April 2020
Temperature: 18.0°C (64°F)
Dewpoint: 16.0°C (61°F) [RH = 88%]
Pressure (altimeter): 29.97 inches Hg (1015.0 mb)
Winds: from the ENE (60 degrees) at 12 MPH (10 knots; 5.1 m/s)
Visibility: 6 or more miles (10+ km)
Ceiling: 2200 feet AGL
Clouds: few clouds at 1200 feet AGL
broken clouds at 2200 feet AGL
broken clouds at 5000 feet AGL
Weather: -RA  (light rain)

METAR text: RCTP 060730Z 05011KT 9999 -RA FEW012 BKN022 BKN050 18/16 Q1015 NOSIG RMK A3000
Conditions at: RCTP (TAIPEI TAOYUAN , TW) observed 0730 UTC 06 April 2020
Temperature: 18.0°C (64°F)
Dewpoint: 16.0°C (61°F) [RH = 88%]
Pressure (altimeter): 29.97 inches Hg (1015.0 mb)
Winds: from the NE (50 degrees) at 13 MPH (11 knots; 5.7 m/s)
Visibility: 6 or more miles (10+ km)
Ceiling: 2200 feet AGL
Clouds: few clouds at 1200 feet AGL
broken clouds at 2200 feet AGL
broken clouds at 5000 feet AGL
Weather: -RA  (light rain)

METAR text: RCTP 060700Z 05014KT 9999 -RA FEW012 BKN020 BKN050 19/16 Q1016 NOSIG RMK A3001
Conditions at: RCTP (TAIPEI TAOYUAN , TW) observed 0700 UTC 06 April 2020
Temperature: 19.0°C (66°F)
Dewpoint: 16.0°C (61°F) [RH = 83%]
Pressure (altimeter): 30.00 inches Hg (1016.0 mb)
Winds: from the NE (50 degrees) at 16 MPH (14 knots; 7.2 m/s)
Visibility: 6 or more miles (10+ km)
Ceiling: 2000 feet AGL
Clouds: few clouds at 1200 feet AGL
broken clouds at 2000 feet AGL
broken clouds at 5000 feet AGL
Weather: -RA  (light rain)

METAR text: RCTP 060642Z 04010KT 9999 -RA FEW012 BKN020 BKN050 19/15 Q1016 NOSIG RMK A3001
Conditions at: RCTP (TAIPEI TAOYUAN , TW) observed 0642 UTC 06 April 2020
Temperature: 19.0°C (66°F)
Dewpoint: 15.0°C (59°F) [RH = 78%]
Pressure (altimeter): 30.00 inches Hg (1016.0 mb)
Winds: from the NE (40 degrees) at 12 MPH (10 knots; 5.1 m/s)
Visibility: 6 or more miles (10+ km)
Ceiling: 2000 feet AGL
Clouds: few clouds at 1200 feet AGL
broken clouds at 2000 feet AGL
broken clouds at 5000 feet AGL
Weather: -RA  (light rain)

METAR text: RCTP 060630Z 05013KT 9999 FEW015 BKN025 BKN060 20/15 Q1015 NOSIG RMK A3000
Conditions at: RCTP (TAIPEI TAOYUAN , TW) observed 0630 UTC 06 April 2020
Temperature: 20.0°C (68°F)
Dewpoint: 15.0°C (59°F) [RH = 73%]
Pressure (altimeter): 29.97 inches Hg (1015.0 mb)
Winds: from the NE (50 degrees) at 15 MPH (13 knots; 6.7 m/s)
Visibility: 6 or more miles (10+ km)
Ceiling: 2500 feet AGL
Clouds: few clouds at 1500 feet AGL
broken clouds at 2500 feet AGL
broken clouds at 6000 feet AGL
Weather: no significant weather observed at this time

METAR text: RCTP 060600Z 05014KT 9999 FEW015 BKN025 BKN060 20/15 Q1016 NOSIG RMK A3001
Conditions at: RCTP (TAIPEI TAOYUAN , TW) observed 0600 UTC 06 April 2020
Temperature: 20.0°C (68°F)
Dewpoint: 15.0°C (59°F) [RH = 73%]
Pressure (altimeter): 30.00 inches Hg (1016.0 mb)
Winds: from the NE (50 degrees) at 16 MPH (14 knots; 7.2 m/s)
Visibility: 6 or more miles (10+ km)
Ceiling: 2500 feet AGL
Clouds: few clouds at 1500 feet AGL
broken clouds at 2500 feet AGL
broken clouds at 6000 feet AGL
Weather: no significant weather observed at this time

METAR text: RCTP 060530Z 05015KT 9999 FEW015 BKN025 BKN060 20/15 Q1016 NOSIG RMK A3002
Conditions at: RCTP (TAIPEI TAOYUAN , TW) observed 0530 UTC 06 April 2020
Temperature: 20.0°C (68°F)
Dewpoint: 15.0°C (59°F) [RH = 73%]
Pressure (altimeter): 30.00 inches Hg (1016.0 mb)
Winds: from the NE (50 degrees) at 17 MPH (15 knots; 7.7 m/s)
Visibility: 6 or more miles (10+ km)
Ceiling: 2500 feet AGL
Clouds: few clouds at 1500 feet AGL
broken clouds at 2500 feet AGL
broken clouds at 6000 feet AGL
Weather: no significant weather observed at this time

METAR text: RCTP 060500Z 05014KT 9999 FEW015 BKN030 BKN060 20/16 Q1017 NOSIG RMK A3004
Conditions at: RCTP (TAIPEI TAOYUAN , TW) observed 0500 UTC 06 April 2020
Temperature: 20.0°C (68°F)
Dewpoint: 16.0°C (61°F) [RH = 78%]
Pressure (altimeter): 30.03 inches Hg (1017.0 mb)
Winds: from the NE (50 degrees) at 16 MPH (14 knots; 7.2 m/s)
Visibility: 6 or more miles (10+ km)
Ceiling: 3000 feet AGL
Clouds: few clouds at 1500 feet AGL
broken clouds at 3000 feet AGL
broken clouds at 6000 feet AGL
Weather: no significant weather observed at this time

METAR text: RCTP 060430Z 05012KT 9999 FEW015 BKN030 BKN060 20/15 Q1017 NOSIG RMK A3005
Conditions at: RCTP (TAIPEI TAOYUAN , TW) observed 0430 UTC 06 April 2020
Temperature: 20.0°C (68°F)
Dewpoint: 15.0°C (59°F) [RH = 73%]
Pressure (altimeter): 30.03 inches Hg (1017.0 mb)
Winds: from the NE (50 degrees) at 14 MPH (12 knots; 6.2 m/s)
Visibility: 6 or more miles (10+ km)
Ceiling: 3000 feet AGL
Clouds: few clouds at 1500 feet AGL
broken clouds at 3000 feet AGL
broken clouds at 6000 feet AGL
Weather: no significant weather observed at this time

METAR text: RCTP 060400Z 06015KT 9999 FEW020 BKN030 BKN070 21/15 Q1018 NOSIG RMK A3006
Conditions at: RCTP (TAIPEI TAOYUAN , TW) observed 0400 UTC 06 April 2020
Temperature: 21.0°C (70°F)
Dewpoint: 15.0°C (59°F) [RH = 69%]
Pressure (altimeter): 30.06 inches Hg (1018.0 mb)
Winds: from the ENE (60 degrees) at 17 MPH (15 knots; 7.7 m/s)
Visibility: 6 or more miles (10+ km)
Ceiling: 3000 feet AGL
Clouds: few clouds at 2000 feet AGL
broken clouds at 3000 feet AGL
broken clouds at 7000 feet AGL
Weather: no significant weather observed at this time

METAR text: RCTP 060330Z 06016KT 9999 FEW020 BKN030 BKN070 21/15 Q1018 NOSIG RMK A3006
Conditions at: RCTP (TAIPEI TAOYUAN , TW) observed 0330 UTC 06 April 2020
Temperature: 21.0°C (70°F)
Dewpoint: 15.0°C (59°F) [RH = 69%]
Pressure (altimeter): 30.06 inches Hg (1018.0 mb)
Winds: from the ENE (60 degrees) at 18 MPH (16 knots; 8.2 m/s)
Visibility: 6 or more miles (10+ km)
Ceiling: 3000 feet AGL
Clouds: few clouds at 2000 feet AGL
broken clouds at 3000 feet AGL
broken clouds at 7000 feet AGL
Weather: no significant weather observed at this time

METAR text: RCTP 060300Z 07012KT 040V100 9999 FEW020 BKN030 BKN070 21/15 Q1018 NOSIG RMK A3007
Conditions at: RCTP (TAIPEI TAOYUAN , TW) observed 0300 UTC 06 April 2020
Temperature: 21.0°C (70°F)
Dewpoint: 15.0°C (59°F) [RH = 69%]
Pressure (altimeter): 30.06 inches Hg (1018.0 mb)
Winds: from the ENE (70 degrees) at 14 MPH (12 knots; 6.2 m/s)
Visibility: 6 or more miles (10+ km)
Ceiling: 3000 feet AGL
Clouds: few clouds at 2000 feet AGL
broken clouds at 3000 feet AGL
broken clouds at 7000 feet AGL
Weather: no significant weather observed at this time

METAR text: RCTP 060230Z 05013KT 9999 FEW020 BKN030 BKN070 21/16 Q1018 NOSIG RMK A3007
Conditions at: RCTP (TAIPEI TAOYUAN , TW) observed 0230 UTC 06 April 2020
Temperature: 21.0°C (70°F)
Dewpoint: 16.0°C (61°F) [RH = 73%]
Pressure (altimeter): 30.06 inches Hg (1018.0 mb)
Winds: from the NE (50 degrees) at 15 MPH (13 knots; 6.7 m/s)
Visibility: 6 or more miles (10+ km)
Ceiling: 3000 feet AGL
Clouds: few clouds at 2000 feet AGL
broken clouds at 3000 feet AGL
broken clouds at 7000 feet AGL
Weather: no significant weather observed at this time

METAR text: RCTP 060200Z 06013KT 9999 FEW020 BKN030 BKN090 20/15 Q1019 NOSIG RMK A3009
Conditions at: RCTP (TAIPEI TAOYUAN , TW) observed 0200 UTC 06 April 2020
Temperature: 20.0°C (68°F)
Dewpoint: 15.0°C (59°F) [RH = 73%]
Pressure (altimeter): 30.09 inches Hg (1019.0 mb)
Winds: from the ENE (60 degrees) at 15 MPH (13 knots; 6.7 m/s)
Visibility: 6 or more miles (10+ km)
Ceiling: 3000 feet AGL
Clouds: few clouds at 2000 feet AGL
broken clouds at 3000 feet AGL
broken clouds at 9000 feet AGL
Weather: no significant weather observed at this time

METAR text: RCTP 060130Z 06015KT 9999 FEW020 SCT030 BKN090 20/15 Q1019 NOSIG RMK A3009
Conditions at: RCTP (TAIPEI TAOYUAN , TW) observed 0130 UTC 06 April 2020
Temperature: 20.0°C (68°F)
Dewpoint: 15.0°C (59°F) [RH = 73%]
Pressure (altimeter): 30.09 inches Hg (1019.0 mb)
Winds: from the ENE (60 degrees) at 17 MPH (15 knots; 7.7 m/s)
Visibility: 6 or more miles (10+ km)
Ceiling: 9000 feet AGL
Clouds: few clouds at 2000 feet AGL
scattered clouds at 3000 feet AGL
broken clouds at 9000 feet AGL
Weather: no significant weather observed at this time

METAR text: RCTP 060100Z 06015KT 9999 FEW020 SCT030 BKN090 19/15 Q1019 NOSIG RMK A3009
Conditions at: RCTP (TAIPEI TAOYUAN , TW) observed 0100 UTC 06 April 2020
Temperature: 19.0°C (66°F)
Dewpoint: 15.0°C (59°F) [RH = 78%]
Pressure (altimeter): 30.09 inches Hg (1019.0 mb)
Winds: from the ENE (60 degrees) at 17 MPH (15 knots; 7.7 m/s)
Visibility: 6 or more miles (10+ km)
Ceiling: 9000 feet AGL
Clouds: few clouds at 2000 feet AGL
scattered clouds at 3000 feet AGL
broken clouds at 9000 feet AGL
Weather: no significant weather observed at this time

METAR text: RCTP 060030Z 05013KT 9999 FEW020 BKN030 BKN090 18/14 Q1019 NOSIG RMK A3010
Conditions at: RCTP (TAIPEI TAOYUAN , TW) observed 0030 UTC 06 April 2020
Temperature: 18.0°C (64°F)
Dewpoint: 14.0°C (57°F) [RH = 77%]
Pressure (altimeter): 30.09 inches Hg (1019.0 mb)
Winds: from the NE (50 degrees) at 15 MPH (13 knots; 6.7 m/s)
Visibility: 6 or more miles (10+ km)
Ceiling: 3000 feet AGL
Clouds: few clouds at 2000 feet AGL
broken clouds at 3000 feet AGL
broken clouds at 9000 feet AGL
Weather: no significant weather observed at this time

METAR text: RCTP 060000Z 05013KT 9999 FEW020 BKN030 BKN080 18/14 Q1019 NOSIG RMK A3009
Conditions at: RCTP (TAIPEI TAOYUAN , TW) observed 0000 UTC 06 April 2020
Temperature: 18.0°C (64°F)
Dewpoint: 14.0°C (57°F) [RH = 77%]
Pressure (altimeter): 30.09 inches Hg (1019.0 mb)
Winds: from the NE (50 degrees) at 15 MPH (13 knots; 6.7 m/s)
Visibility: 6 or more miles (10+ km)
Ceiling: 3000 feet AGL
Clouds: few clouds at 2000 feet AGL
broken clouds at 3000 feet AGL
broken clouds at 8000 feet AGL
Weather: no significant weather observed at this time

METAR text: RCTP 052330Z 05013KT 9999 FEW020 BKN030 BKN080 18/14 Q1019 NOSIG RMK A3009
Conditions at: RCTP (TAIPEI TAOYUAN , TW) observed 2330 UTC 05 April 2020
Temperature: 18.0°C (64°F)
Dewpoint: 14.0°C (57°F) [RH = 77%]
Pressure (altimeter): 30.09 inches Hg (1019.0 mb)
Winds: from the NE (50 degrees) at 15 MPH (13 knots; 6.7 m/s)
Visibility: 6 or more miles (10+ km)
Ceiling: 3000 feet AGL
Clouds: few clouds at 2000 feet AGL
broken clouds at 3000 feet AGL
broken clouds at 8000 feet AGL
Weather: no significant weather observed at this time

METAR text: RCTP 052300Z 06015KT 9999 FEW020 BKN030 BKN090 18/13 Q1019 NOSIG RMK A3009
Conditions at: RCTP (TAIPEI TAOYUAN , TW) observed 2300 UTC 05 April 2020
Temperature: 18.0°C (64°F)
Dewpoint: 13.0°C (55°F) [RH = 73%]
Pressure (altimeter): 30.09 inches Hg (1019.0 mb)
Winds: from the ENE (60 degrees) at 17 MPH (15 knots; 7.7 m/s)
Visibility: 6 or more miles (10+ km)
Ceiling: 3000 feet AGL
Clouds: few clouds at 2000 feet AGL
broken clouds at 3000 feet AGL
broken clouds at 9000 feet AGL
Weather: no significant weather observed at this time

METAR text: RCTP 052230Z 06015KT 9999 FEW020 BKN030 BKN090 18/13 Q1018 NOSIG RMK A3007
Conditions at: RCTP (TAIPEI TAOYUAN , TW) observed 2230 UTC 05 April 2020
Temperature: 18.0°C (64°F)
Dewpoint: 13.0°C (55°F) [RH = 73%]
Pressure (altimeter): 30.06 inches Hg (1018.0 mb)
Winds: from the ENE (60 degrees) at 17 MPH (15 knots; 7.7 m/s)
Visibility: 6 or more miles (10+ km)
Ceiling: 3000 feet AGL
Clouds: few clouds at 2000 feet AGL
broken clouds at 3000 feet AGL
broken clouds at 9000 feet AGL
Weather: no significant weather observed at this time

METAR text: RCTP 052200Z 05015KT 9999 FEW020 BKN030 BKN090 18/13 Q1018 NOSIG RMK A3007
Conditions at: RCTP (TAIPEI TAOYUAN , TW) observed 2200 UTC 05 April 2020
Temperature: 18.0°C (64°F)
Dewpoint: 13.0°C (55°F) [RH = 73%]
Pressure (altimeter): 30.06 inches Hg (1018.0 mb)
Winds: from the NE (50 degrees) at 17 MPH (15 knots; 7.7 m/s)
Visibility: 6 or more miles (10+ km)
Ceiling: 3000 feet AGL
Clouds: few clouds at 2000 feet AGL
broken clouds at 3000 feet AGL
broken clouds at 9000 feet AGL
Weather: no significant weather observed at this time

METAR text: RCTP 052130Z 06013KT 9999 FEW020 SCT035 BKN090 17/13 Q1018 NOSIG RMK A3007
Conditions at: RCTP (TAIPEI TAOYUAN , TW) observed 2130 UTC 05 April 2020
Temperature: 17.0°C (63°F)
Dewpoint: 13.0°C (55°F) [RH = 77%]
Pressure (altimeter): 30.06 inches Hg (1018.0 mb)
Winds: from the ENE (60 degrees) at 15 MPH (13 knots; 6.7 m/s)
Visibility: 6 or more miles (10+ km)
Ceiling: 9000 feet AGL
Clouds: few clouds at 2000 feet AGL
scattered clouds at 3500 feet AGL
broken clouds at 9000 feet AGL
Weather: no significant weather observed at this time

METAR text: RCTP 052100Z 05012KT 9999 FEW020 SCT035 BKN090 17/13 Q1018 NOSIG RMK A3007
Conditions at: RCTP (TAIPEI TAOYUAN , TW) observed 2100 UTC 05 April 2020
Temperature: 17.0°C (63°F)
Dewpoint: 13.0°C (55°F) [RH = 77%]
Pressure (altimeter): 30.06 inches Hg (1018.0 mb)
Winds: from the NE (50 degrees) at 14 MPH (12 knots; 6.2 m/s)
Visibility: 6 or more miles (10+ km)
Ceiling: 9000 feet AGL
Clouds: few clouds at 2000 feet AGL
scattered clouds at 3500 feet AGL
broken clouds at 9000 feet AGL
Weather: no significant weather observed at this time

METAR text: RCTP 052030Z 05012KT 9999 FEW020 SCT035 BKN090 17/13 Q1018 NOSIG RMK A3007
Conditions at: RCTP (TAIPEI TAOYUAN , TW) observed 2030 UTC 05 April 2020
Temperature: 17.0°C (63°F)
Dewpoint: 13.0°C (55°F) [RH = 77%]
Pressure (altimeter): 30.06 inches Hg (1018.0 mb)
Winds: from the NE (50 degrees) at 14 MPH (12 knots; 6.2 m/s)
Visibility: 6 or more miles (10+ km)
Ceiling: 9000 feet AGL
Clouds: few clouds at 2000 feet AGL
scattered clouds at 3500 feet AGL
broken clouds at 9000 feet AGL
Weather: no significant weather observed at this time

METAR text: RCTP 052000Z 07012KT 9999 FEW020 SCT035 BKN050 17/13 Q1017 NOSIG RMK A3005
Conditions at: RCTP (TAIPEI TAOYUAN , TW) observed 2000 UTC 05 April 2020
Temperature: 17.0°C (63°F)
Dewpoint: 13.0°C (55°F) [RH = 77%]
Pressure (altimeter): 30.03 inches Hg (1017.0 mb)
Winds: from the ENE (70 degrees) at 14 MPH (12 knots; 6.2 m/s)
Visibility: 6 or more miles (10+ km)
Ceiling: 5000 feet AGL
Clouds: few clouds at 2000 feet AGL
scattered clouds at 3500 feet AGL
broken clouds at 5000 feet AGL
Weather: no significant weather observed at this time

METAR text: RCTP 051930Z 07010KT 9999 FEW020 SCT035 BKN050 17/13 Q1018 NOSIG RMK A3006
Conditions at: RCTP (TAIPEI TAOYUAN , TW) observed 1930 UTC 05 April 2020
Temperature: 17.0°C (63°F)
Dewpoint: 13.0°C (55°F) [RH = 77%]
Pressure (altimeter): 30.06 inches Hg (1018.0 mb)
Winds: from the ENE (70 degrees) at 12 MPH (10 knots; 5.1 m/s)
Visibility: 6 or more miles (10+ km)
Ceiling: 5000 feet AGL
Clouds: few clouds at 2000 feet AGL
scattered clouds at 3500 feet AGL
broken clouds at 5000 feet AGL
Weather: no significant weather observed at this time

METAR text: RCTP 051900Z 10010KT 9999 FEW020 SCT035 BKN050 17/13 Q1018 NOSIG RMK A3007
Conditions at: RCTP (TAIPEI TAOYUAN , TW) observed 1900 UTC 05 April 2020
Temperature: 17.0°C (63°F)
Dewpoint: 13.0°C (55°F) [RH = 77%]
Pressure (altimeter): 30.06 inches Hg (1018.0 mb)
Winds: from the E (100 degrees) at 12 MPH (10 knots; 5.1 m/s)
Visibility: 6 or more miles (10+ km)
Ceiling: 5000 feet AGL
Clouds: few clouds at 2000 feet AGL
scattered clouds at 3500 feet AGL
broken clouds at 5000 feet AGL
Weather: no significant weather observed at this time

Forecast for: RCTP (TAIPEI TAOYUAN , TW)
Text: TAF RCTP 070500Z 0706/0812 04013KT 9999 FEW010 BKN020
Forecast period: 0600 to 1500 UTC 07 April 2020
Forecast type: FROM: standard forecast or significant change
Winds: from the NE (40 degrees) at 15 MPH (13 knots; 6.7 m/s)
Visibility: 6 or more miles 10+ km)
Ceiling: 2000 feet AGL
Clouds: few clouds at 1000 feet AGL
broken clouds at 2000 feet AGL
Weather: no significant weather forecast for this period
Text: TEMPO 0709/0715 FEW016 BKN032
Forecast period: 0900 to 1500 UTC 07 April 2020
Forecast type: TEMPORARY: The following changes expected for less than half the time period
Visibility: missing
Ceiling: 3200 feet AGL
Clouds: few clouds at 1600 feet AGL
broken clouds at 3200 feet AGL
Weather: no significant weather forecast for this period
Text: BECMG 0715/0717 FEW015 BKN032
Forecast period: 1500 UTC 07 April 2020 to 1200 UTC 08 April 2020
Forecast type: BECOMING: Conditions expected to become as follows by 1700 UTC 07 April 2020
Winds: from the NE (40 degrees) at 15 MPH (13 knots; 6.7 m/s)
Visibility: 6 or more miles 10+ km)
Ceiling: 3200 feet AGL
Clouds: few clouds at 1500 feet AGL
broken clouds at 3200 feet AGL
Weather: no significant weather forecast for this period
Text: TEMPO 0718/0724 05008KT
Forecast period: 1800 UTC 07 April 2020 to 0000 UTC 08 April 2020
Forecast type: TEMPORARY: The following changes expected for less than half the time period
Winds: from the NE (50 degrees) at 9 MPH (8 knots; 4.1 m/s)
Visibility: missing
Ceiling: unknown
Clouds: missing
Weather: no significant weather forecast for this period
Text: TEMPO 0801/0807 04018KT
Forecast period: 0100 to 0700 UTC 08 April 2020
Forecast type: TEMPORARY: The following changes expected for less than half the time period
Winds: from the NE (40 degrees) at 21 MPH (18 knots; 9.3 m/s)
Visibility: missing
Ceiling: unknown
Clouds: missing
Weather: no significant weather forecast for this period